createdAt,value
2023-03-06T00:00:47.869Z,45.85
2023-03-06T00:03:14.835Z,50.10
2023-03-06T00:05:42.163Z,52.90
2023-03-06T00:08:08.680Z,51.28
2023-03-06T00:10:35.209Z,52.78
2023-03-06T00:13:04.888Z,48.47
2023-03-06T00:15:31.846Z,62.03
2023-03-06T00:17:58.418Z,61.13
2023-03-06T00:20:25.830Z,47.05
2023-03-06T00:22:52.264Z,47.58
2023-03-06T00:25:20.809Z,48.67
2023-03-06T00:27:49.290Z,46.80
2023-03-06T00:30:20.316Z,50.05
2023-03-06T00:32:47.200Z,52.47
2023-03-06T00:35:14.737Z,51.13
2023-03-06T00:37:42.938Z,46.78
2023-03-06T00:40:14.651Z,45.88
2023-03-06T00:42:41.270Z,49.92
2023-03-06T00:45:08.668Z,44.97
2023-03-06T00:47:35.269Z,45.72
2023-03-06T00:50:01.687Z,45.13
2023-03-06T00:52:28.188Z,44.00
2023-03-06T00:54:54.623Z,48.58
2023-03-06T00:57:21.332Z,44.30
2023-03-06T00:59:47.830Z,40.85
2023-03-06T01:02:14.742Z,40.35
2023-03-06T01:04:41.429Z,48.00
2023-03-06T01:07:08.334Z,42.60
2023-03-06T01:09:34.756Z,43.10
2023-03-06T01:12:01.190Z,40.78
2023-03-06T01:14:28.103Z,42.58
2023-03-06T01:16:54.556Z,46.15
2023-03-06T01:19:21.085Z,41.53
2023-03-06T01:21:47.587Z,45.97
2023-03-06T01:24:14.234Z,45.63
2023-03-06T01:26:40.646Z,43.42
2023-03-06T01:29:07.083Z,44.03
2023-03-06T01:31:33.648Z,41.80
2023-03-06T01:34:00.243Z,42.72
2023-03-06T01:36:26.649Z,42.78
2023-03-06T01:38:53.119Z,47.63
2023-03-06T01:41:21.397Z,43.40
2023-03-06T01:43:48.988Z,39.28
2023-03-06T01:46:44.874Z,45.28
2023-03-06T01:49:16.869Z,41.22
2023-03-06T01:51:49.233Z,44.67
2023-03-06T01:54:29.651Z,40.53
2023-03-06T01:57:02.233Z,43.97
2023-03-06T01:59:29.247Z,44.03
2023-03-06T02:01:57.186Z,40.50
2023-03-06T02:04:24.456Z,33.55
2023-03-06T02:06:51.156Z,42.45
2023-03-06T02:09:17.723Z,46.75
2023-03-06T02:11:46.216Z,47.10
2023-03-06T02:14:15.796Z,41.78
2023-03-06T02:16:44.395Z,44.20
2023-03-06T02:19:29.337Z,42.05
2023-03-06T02:21:55.909Z,49.25
2023-03-06T02:24:48.305Z,39.05
2023-03-06T02:27:15.853Z,41.92
2023-03-06T02:29:45.496Z,43.30
2023-03-06T02:32:12.004Z,42.53
2023-03-06T02:34:38.471Z,43.33
2023-03-06T02:37:09.791Z,47.15
2023-03-06T02:39:41.226Z,45.95
2023-03-06T02:42:07.704Z,37.70
2023-03-06T02:44:35.872Z,42.92
2023-03-06T02:47:02.723Z,42.15
2023-03-06T02:49:29.145Z,46.60
2023-03-06T02:51:55.520Z,43.03
2023-03-06T02:54:21.914Z,42.20
2023-03-06T02:56:48.555Z,42.78
2023-03-06T02:59:14.984Z,45.25
2023-03-06T03:01:41.497Z,45.60
2023-03-06T03:04:08.544Z,46.35
2023-03-06T03:06:35.003Z,42.90
2023-03-06T03:09:01.454Z,49.53
2023-03-06T03:11:27.930Z,46.10
2023-03-06T03:13:54.455Z,47.17
2023-03-06T03:16:21.057Z,49.33
2023-03-06T03:18:53.856Z,49.38
2023-03-06T03:21:20.262Z,46.70
2023-03-06T03:23:46.692Z,43.22
2023-03-06T03:26:16.365Z,51.13
2023-03-06T03:28:43.183Z,44.40
2023-03-06T03:31:11.074Z,38.85
2023-03-06T03:33:37.818Z,35.35
2023-03-06T03:36:06.765Z,38.80
2023-03-06T03:38:34.274Z,45.38
2023-03-06T03:41:01.669Z,37.75
2023-03-06T03:43:28.138Z,38.15
2023-03-06T03:45:54.832Z,39.05
2023-03-06T03:48:21.505Z,43.65
2023-03-06T03:50:47.997Z,38.38
2023-03-06T03:53:14.568Z,44.45
2023-03-06T03:55:41.031Z,46.30
2023-03-06T03:58:07.438Z,41.58
2023-03-06T04:00:33.851Z,40.95
2023-03-06T04:03:00.550Z,44.88
2023-03-06T04:05:27.119Z,46.78
2023-03-06T04:07:53.764Z,45.67
2023-03-06T04:10:20.309Z,36.55
2023-03-06T04:12:46.715Z,45.30
2023-03-06T04:15:13.165Z,41.97
2023-03-06T04:17:39.584Z,40.10
2023-03-06T04:20:06.644Z,41.22
2023-03-06T04:22:33.063Z,42.90
2023-03-06T04:24:59.444Z,42.40
2023-03-06T04:27:25.874Z,41.55
2023-03-06T04:29:56.195Z,45.78
2023-03-06T04:32:23.842Z,40.90
2023-03-06T04:34:50.549Z,42.45
2023-03-06T04:37:20.892Z,40.17
2023-03-06T04:39:47.636Z,40.15
2023-03-06T04:42:14.605Z,37.58
2023-03-06T04:44:41.146Z,41.45
2023-03-06T04:47:07.700Z,38.05
2023-03-06T04:49:34.403Z,37.88
2023-03-06T04:52:00.853Z,39.67
2023-03-06T04:54:27.278Z,41.72
2023-03-06T04:56:53.683Z,38.47
2023-03-06T04:59:20.705Z,35.00
2023-03-06T05:01:47.426Z,39.15
2023-03-06T05:04:15.201Z,36.63
2023-03-06T05:06:41.732Z,36.78
2023-03-06T05:09:08.254Z,35.90
2023-03-06T05:11:34.779Z,36.67
2023-03-06T05:14:01.213Z,35.65
2023-03-06T05:16:27.695Z,35.50
2023-03-06T05:18:54.233Z,77.45
2023-03-06T05:21:20.795Z,118.22
2023-03-06T05:23:47.581Z,131.00
2023-03-06T05:26:15.998Z,64.88
2023-03-06T05:28:43.302Z,43.20
2023-03-06T05:31:09.844Z,38.80
2023-03-06T05:33:37.063Z,39.60
2023-03-06T05:36:04.109Z,46.00
2023-03-06T05:38:30.567Z,45.28
2023-03-06T05:40:57.005Z,39.88
2023-03-06T05:43:23.651Z,45.00
2023-03-06T05:45:53.130Z,37.38
2023-03-06T05:48:19.591Z,46.65
2023-03-06T05:50:45.965Z,43.75
2023-03-06T05:53:13.122Z,42.65
2023-03-06T05:55:39.632Z,45.45
2023-03-06T05:58:06.078Z,52.97
2023-03-06T06:00:32.501Z,41.38
2023-03-06T06:03:01.962Z,46.88
2023-03-06T06:05:28.913Z,42.10
2023-03-06T06:07:55.327Z,49.15
2023-03-06T06:10:21.831Z,48.38
2023-03-06T06:12:48.299Z,43.00
2023-03-06T06:15:15.401Z,51.78
2023-03-06T06:17:41.784Z,44.60
2023-03-06T06:20:09.030Z,45.42
2023-03-06T06:22:37.847Z,44.17
2023-03-06T06:25:05.860Z,42.55
2023-03-06T06:27:32.424Z,41.50
2023-03-06T06:29:58.780Z,37.50
2023-03-06T06:32:25.316Z,41.03
2023-03-06T06:34:51.865Z,42.17
2023-03-06T06:37:18.334Z,41.88
2023-03-06T06:39:44.881Z,40.10
2023-03-06T06:42:29.427Z,51.38
2023-03-06T06:44:56.912Z,47.60
2023-03-06T06:47:25.191Z,44.30
2023-03-06T06:49:53.740Z,49.92
2023-03-06T06:52:20.467Z,47.78
2023-03-06T06:54:47.077Z,51.90
2023-03-06T06:57:14.817Z,59.67
2023-03-06T06:59:41.829Z,55.15
2023-03-06T07:02:10.170Z,43.10
2023-03-06T07:04:36.603Z,50.15
2023-03-06T07:07:03.541Z,43.20
2023-03-06T07:09:31.423Z,46.30
2023-03-06T07:11:58.205Z,46.47
2023-03-06T07:14:24.837Z,43.35
2023-03-06T07:16:51.310Z,52.30
2023-03-06T07:19:18.272Z,58.20
2023-03-06T07:21:45.035Z,70.05
2023-03-06T07:24:12.809Z,47.95
2023-03-06T07:26:39.317Z,50.67
2023-03-06T07:29:05.823Z,46.20
2023-03-06T07:31:32.388Z,43.25
2023-03-06T07:33:58.925Z,44.30
2023-03-06T07:36:25.387Z,39.60
2023-03-06T07:38:51.848Z,45.13
2023-03-06T07:41:22.150Z,40.92
2023-03-06T07:43:49.740Z,41.97
2023-03-06T07:46:16.279Z,43.28
2023-03-06T07:48:43.188Z,44.65
2023-03-06T07:51:15.956Z,40.00
2023-03-06T07:53:42.988Z,57.92
2023-03-06T07:56:11.118Z,38.72
2023-03-06T07:58:39.966Z,44.13
2023-03-06T08:01:08.975Z,54.13
2023-03-06T08:03:35.599Z,49.58
2023-03-06T08:06:10.126Z,55.03
2023-03-06T08:08:39.294Z,49.45
2023-03-06T08:11:07.402Z,48.03
2023-03-06T08:13:34.117Z,60.22
2023-03-06T08:16:00.607Z,52.58
2023-03-06T08:18:28.646Z,52.15
2023-03-06T08:21:10.113Z,38.17
2023-03-06T08:23:37.420Z,53.05
2023-03-06T08:26:06.723Z,52.90
2023-03-06T08:28:33.463Z,47.17
2023-03-06T08:31:11.566Z,55.78
2023-03-06T08:33:39.194Z,56.55
2023-03-06T08:36:05.753Z,50.05
2023-03-06T08:38:32.191Z,50.17
2023-03-06T08:40:58.617Z,46.90
2023-03-06T08:43:25.544Z,47.45
2023-03-06T08:45:57.331Z,47.05
2023-03-06T08:48:24.043Z,48.85
2023-03-06T08:50:50.766Z,51.60
2023-03-06T08:53:17.612Z,50.92
2023-03-06T08:55:44.816Z,48.83
2023-03-06T08:58:11.480Z,48.17
2023-03-06T09:00:38.578Z,54.92
2023-03-06T09:03:05.734Z,57.33
2023-03-06T09:05:32.404Z,56.20
2023-03-06T09:07:58.855Z,56.10
2023-03-06T09:10:26.805Z,56.25
2023-03-06T09:12:55.122Z,54.83
2023-03-06T09:15:23.400Z,56.65
2023-03-06T09:17:51.308Z,59.33
2023-03-06T09:20:19.084Z,51.75
2023-03-06T09:22:45.870Z,62.27
2023-03-06T09:25:14.325Z,57.78
2023-03-06T09:27:41.151Z,58.10
2023-03-06T09:30:09.004Z,48.90
2023-03-06T09:32:35.707Z,55.77
2023-03-06T09:35:02.133Z,50.63
2023-03-06T09:37:28.654Z,52.17
2023-03-06T09:39:55.405Z,51.95
2023-03-06T09:42:23.772Z,49.38
2023-03-06T09:45:00.732Z,49.85
2023-03-06T09:47:49.114Z,55.55
2023-03-06T09:50:35.187Z,48.13
2023-03-06T09:53:31.331Z,52.40
2023-03-06T09:56:11.067Z,52.60
2023-03-06T09:58:49.921Z,56.47
2023-03-06T10:01:22.052Z,54.20
2023-03-06T10:04:19.356Z,52.10
2023-03-06T10:06:53.279Z,60.85
2023-03-06T10:09:27.976Z,53.70
2023-03-06T10:12:13.315Z,54.88
2023-03-06T10:14:52.854Z,50.88
2023-03-06T10:17:22.432Z,57.75
2023-03-06T10:19:49.779Z,50.33
2023-03-06T10:22:25.871Z,55.72
2023-03-06T10:25:06.879Z,54.17
2023-03-06T10:27:45.332Z,51.88
2023-03-06T10:30:46.201Z,57.05
2023-03-06T10:33:21.783Z,57.83
2023-03-06T10:35:50.768Z,50.35
2023-03-06T10:38:26.131Z,62.00
2023-03-06T10:41:10.882Z,58.00
2023-03-06T10:44:05.385Z,59.08
2023-03-06T10:46:33.270Z,56.65
2023-03-06T10:49:03.076Z,57.13
2023-03-06T10:51:30.784Z,60.42
2023-03-06T10:54:18.982Z,56.30
2023-03-06T10:56:47.086Z,54.50
2023-03-06T10:59:30.923Z,58.50
2023-03-06T11:02:14.470Z,57.00
2023-03-06T11:04:44.952Z,55.15
2023-03-06T11:07:27.265Z,49.00
2023-03-06T11:10:00.032Z,52.10
2023-03-06T11:12:32.262Z,52.30
2023-03-06T11:15:14.596Z,52.85
2023-03-06T11:18:10.123Z,54.63
2023-03-06T11:20:51.360Z,52.88
2023-03-06T11:23:39.020Z,59.08
2023-03-06T11:26:17.491Z,63.33
2023-03-06T11:29:01.890Z,55.85
2023-03-06T11:31:32.264Z,52.92
2023-03-06T11:34:07.510Z,55.17
2023-03-06T11:36:58.603Z,54.30
2023-03-06T11:39:48.052Z,56.47
2023-03-06T11:42:23.986Z,49.25
2023-03-06T11:45:18.162Z,51.28
2023-03-06T11:48:08.538Z,42.75
2023-03-06T11:50:38.619Z,44.10
2023-03-06T11:53:10.476Z,46.10
2023-03-06T11:56:14.578Z,42.35
2023-03-06T11:59:00.139Z,42.22
2023-03-06T12:02:05.579Z,47.45
2023-03-06T12:04:50.992Z,47.55
2023-03-06T12:07:31.265Z,37.97
2023-03-06T12:10:27.772Z,42.40
2023-03-06T12:13:04.234Z,41.78
2023-03-06T12:15:55.540Z,43.38
2023-03-06T12:18:51.318Z,42.80
2023-03-06T12:21:59.300Z,47.97
2023-03-06T12:24:53.984Z,38.35
2023-03-06T12:27:36.398Z,47.80
2023-03-06T12:30:33.724Z,42.95
2023-03-06T12:33:38.899Z,45.60
2023-03-06T12:36:24.256Z,43.95
2023-03-06T12:39:00.604Z,44.15
2023-03-06T12:41:51.800Z,44.58
2023-03-06T12:44:25.057Z,38.80
2023-03-06T12:46:59.115Z,39.03
2023-03-06T12:49:33.148Z,39.15
2023-03-06T12:52:02.109Z,41.45
2023-03-06T12:54:33.463Z,39.58
2023-03-06T12:57:00.889Z,42.55
2023-03-06T12:59:38.078Z,40.20
2023-03-06T13:02:32.550Z,42.22
2023-03-06T13:05:00.257Z,38.58
2023-03-06T13:07:46.451Z,41.03
2023-03-06T13:10:23.114Z,41.10
2023-03-06T13:12:56.132Z,44.20
2023-03-06T13:16:04.897Z,41.33
2023-03-06T13:18:31.253Z,44.60
2023-03-06T13:20:58.113Z,40.03
2023-03-06T13:23:33.984Z,42.67
2023-03-06T13:26:01.984Z,42.53
2023-03-06T13:28:50.374Z,37.67
2023-03-06T13:33:54.801Z,44.50
2023-03-06T13:36:30.661Z,44.30
2023-03-06T13:39:07.457Z,48.72
2023-03-06T13:41:45.369Z,38.70
2023-03-06T13:44:40.725Z,44.45
2023-03-06T13:47:18.201Z,37.03
2023-03-06T13:49:48.184Z,45.53
2023-03-06T13:52:33.236Z,36.00
2023-03-06T13:55:17.848Z,38.80
2023-03-06T13:58:19.960Z,47.40
2023-03-06T14:01:20.649Z,39.50
2023-03-06T14:04:26.113Z,35.33
2023-03-06T14:07:04.901Z,39.78
2023-03-06T14:09:41.652Z,41.10
2023-03-06T14:12:20.307Z,40.10
2023-03-06T14:17:31.705Z,38.13
2023-03-06T14:20:03.857Z,36.05
2023-03-06T14:22:30.299Z,36.15
2023-03-06T14:25:00.652Z,32.97
2023-03-06T14:27:41.146Z,39.03
2023-03-06T14:30:25.370Z,36.10
2023-03-06T14:32:54.606Z,38.78
2023-03-06T14:35:24.405Z,36.00
2023-03-06T14:37:55.499Z,40.33
2023-03-06T14:40:29.093Z,39.63
2023-03-06T14:43:17.430Z,42.00
2023-03-06T14:45:54.352Z,42.20
2023-03-06T14:48:21.266Z,39.50
2023-03-06T14:50:53.323Z,35.95
2023-03-06T14:53:26.786Z,37.13
2023-03-06T14:55:57.809Z,35.00
2023-03-06T14:58:39.557Z,39.97
2023-03-06T15:01:11.477Z,43.85
2023-03-06T15:03:50.524Z,36.53
2023-03-06T15:06:21.316Z,37.00
2023-03-06T15:08:52.170Z,34.45
2023-03-06T15:11:18.657Z,35.70
2023-03-06T15:14:00.552Z,36.75
2023-03-06T15:16:30.176Z,40.03
2023-03-06T15:19:02.514Z,37.38
2023-03-06T15:21:38.738Z,35.63
2023-03-06T15:24:36.873Z,34.40
2023-03-06T15:27:05.945Z,36.95
2023-03-06T15:29:33.610Z,34.90
2023-03-06T15:32:29.447Z,39.30
2023-03-06T15:35:26.686Z,37.10
2023-03-06T15:37:53.480Z,36.97
2023-03-06T15:40:22.271Z,39.25
2023-03-06T15:42:52.178Z,40.40
2023-03-06T15:45:23.178Z,39.47
2023-03-06T15:47:51.400Z,40.25
2023-03-06T15:50:29.077Z,36.47
2023-03-06T15:52:55.700Z,35.80
2023-03-06T15:55:25.948Z,39.40
2023-03-06T15:57:59.517Z,38.63
2023-03-06T16:00:44.598Z,34.83
2023-03-06T16:03:11.722Z,39.65
2023-03-06T16:05:38.677Z,38.65
2023-03-06T16:08:06.097Z,37.17
2023-03-06T16:10:37.862Z,40.85
2023-03-06T16:13:08.477Z,40.03
2023-03-06T16:15:51.405Z,38.60
2023-03-06T16:18:18.396Z,37.25
2023-03-06T16:20:44.987Z,39.97
2023-03-06T16:23:11.701Z,43.75
2023-03-06T16:25:40.569Z,36.88
2023-03-06T16:28:17.545Z,40.42
2023-03-06T16:30:45.872Z,37.28
2023-03-06T16:33:14.947Z,37.85
2023-03-06T16:35:44.773Z,38.38
2023-03-06T16:38:11.358Z,42.47
2023-03-06T16:40:43.509Z,43.38
2023-03-06T16:43:10.847Z,39.90
2023-03-06T16:45:40.172Z,42.17
2023-03-06T16:48:06.988Z,35.83
2023-03-06T16:50:39.122Z,39.38
2023-03-06T16:53:06.093Z,39.53
2023-03-06T16:55:32.888Z,39.97
2023-03-06T16:57:59.734Z,45.33
2023-03-06T17:00:31.133Z,40.42
2023-03-06T17:02:57.791Z,38.67
2023-03-06T17:05:24.807Z,39.55
2023-03-06T17:07:51.885Z,36.63
2023-03-06T17:10:20.052Z,40.67
2023-03-06T17:12:46.904Z,38.28
2023-03-06T17:15:14.443Z,41.83
2023-03-06T17:17:40.892Z,41.22
2023-03-06T17:20:08.240Z,43.08
2023-03-06T17:22:36.044Z,44.85
2023-03-06T17:25:05.048Z,43.67
2023-03-06T17:27:31.518Z,47.65
2023-03-06T17:29:58.112Z,46.35
2023-03-06T17:32:25.702Z,37.63
2023-03-06T17:34:52.498Z,43.38
2023-03-06T17:37:19.328Z,49.30
2023-03-06T17:39:45.899Z,39.70
2023-03-06T17:42:13.113Z,38.05
2023-03-06T17:44:39.631Z,38.92
2023-03-06T17:47:06.274Z,44.20
2023-03-06T17:49:32.960Z,41.10
2023-03-06T17:52:00.871Z,34.20
2023-03-06T17:54:29.182Z,40.80
2023-03-06T17:56:56.762Z,38.75
2023-03-06T17:59:23.201Z,39.78
2023-03-06T18:01:49.676Z,38.47
2023-03-06T18:04:16.922Z,34.25
2023-03-06T18:06:44.438Z,39.70
2023-03-06T18:09:10.851Z,41.67
2023-03-06T18:11:37.395Z,43.10
2023-03-06T18:14:05.524Z,43.67
2023-03-06T18:16:32.212Z,43.58
2023-03-06T18:18:58.740Z,42.05
2023-03-06T18:21:26.264Z,44.08
2023-03-06T18:23:52.757Z,45.55
2023-03-06T18:26:25.092Z,83.00
2023-03-06T18:28:54.778Z,44.85
2023-03-06T18:31:24.870Z,41.40
2023-03-06T18:33:56.981Z,51.85
2023-03-06T18:36:26.008Z,40.58
2023-03-06T18:38:52.643Z,41.63
2023-03-06T18:41:21.027Z,42.65
2023-03-06T18:43:59.024Z,42.75
2023-03-06T18:46:29.053Z,43.38
2023-03-06T18:48:55.588Z,44.63
2023-03-06T18:51:22.063Z,56.10
2023-03-06T18:53:48.584Z,54.17
2023-03-06T18:56:21.213Z,46.88
2023-03-06T18:58:48.267Z,61.45
2023-03-06T19:01:15.519Z,65.15
2023-03-06T19:03:45.114Z,60.22
2023-03-06T19:06:14.783Z,56.90
2023-03-06T19:08:41.448Z,52.47
2023-03-06T19:11:11.384Z,49.85
2023-03-06T19:13:38.420Z,48.45
2023-03-06T19:16:05.635Z,46.50
2023-03-06T19:18:32.360Z,43.35
2023-03-06T19:21:17.407Z,53.50
2023-03-06T19:23:45.102Z,45.53
2023-03-06T19:26:12.271Z,54.15
2023-03-06T19:28:41.875Z,41.88
2023-03-06T19:31:15.805Z,49.72
2023-03-06T19:33:43.873Z,44.38
2023-03-06T19:36:13.544Z,51.67
2023-03-06T19:38:40.144Z,50.63
2023-03-06T19:41:11.713Z,44.60
2023-03-06T19:43:38.287Z,53.03
2023-03-06T19:46:05.433Z,47.85
2023-03-06T19:48:32.736Z,61.78
2023-03-06T19:51:07.443Z,73.20
2023-03-06T19:53:35.325Z,73.18
2023-03-06T19:56:14.786Z,61.65
2023-03-06T19:58:41.432Z,76.18
2023-03-06T20:01:22.949Z,81.53
2023-03-06T20:03:51.136Z,53.67
2023-03-06T20:06:19.678Z,49.22
2023-03-06T20:08:47.112Z,46.58
2023-03-06T20:11:24.211Z,50.33
2023-03-06T20:13:51.242Z,48.42
2023-03-06T20:16:18.924Z,47.65
2023-03-06T20:18:45.658Z,49.95
2023-03-06T20:21:12.186Z,53.35
2023-03-06T20:23:39.863Z,49.53
2023-03-06T20:26:12.112Z,46.70
2023-03-06T20:28:44.890Z,44.55
2023-03-06T20:31:17.317Z,48.05
2023-03-06T20:33:49.938Z,41.97
2023-03-06T20:36:20.091Z,44.55
2023-03-06T20:38:47.256Z,43.03
2023-03-06T20:41:20.792Z,36.42
2023-03-06T20:43:47.753Z,43.13
2023-03-06T20:46:15.871Z,42.55
2023-03-06T20:48:43.733Z,41.13
2023-03-06T20:51:21.867Z,40.80
2023-03-06T20:53:50.083Z,38.90
2023-03-06T20:56:22.398Z,37.65
2023-03-06T20:58:49.042Z,40.78
2023-03-06T21:01:19.159Z,40.20
2023-03-06T21:03:45.617Z,36.22
2023-03-06T21:06:12.029Z,39.75
2023-03-06T21:08:39.613Z,42.20
2023-03-06T21:11:06.597Z,39.10
2023-03-06T21:13:33.153Z,34.58
2023-03-06T21:15:59.788Z,38.50
2023-03-06T21:18:26.481Z,42.22
2023-03-06T21:20:53.012Z,43.72
2023-03-06T21:23:19.724Z,42.10
2023-03-06T21:25:55.445Z,42.90
2023-03-06T21:28:21.953Z,43.55
2023-03-06T21:30:48.557Z,40.05
2023-03-06T21:33:16.098Z,40.83
2023-03-06T21:35:45.853Z,38.90
2023-03-06T21:38:13.341Z,36.45
2023-03-06T21:40:40.278Z,45.67
2023-03-06T21:43:06.723Z,36.80
2023-03-06T21:45:33.148Z,35.97
2023-03-06T21:48:00.482Z,39.05
2023-03-06T21:50:28.081Z,35.45
2023-03-06T21:52:56.080Z,36.65
2023-03-06T21:55:22.762Z,39.63
2023-03-06T21:57:50.799Z,39.42
2023-03-06T22:00:19.456Z,41.40
2023-03-06T22:05:14.399Z,39.38
2023-03-06T22:07:41.289Z,42.70
2023-03-06T22:10:11.991Z,40.38
2023-03-06T22:12:40.609Z,39.33
2023-03-06T22:15:07.820Z,39.70
2023-03-06T22:17:34.651Z,44.47
2023-03-06T22:20:01.476Z,36.78
2023-03-06T22:22:28.112Z,46.75
2023-03-06T22:24:54.538Z,44.75
2023-03-06T22:27:21.774Z,43.58
2023-03-06T22:29:48.200Z,48.53
2023-03-06T22:32:15.497Z,41.63
2023-03-06T22:34:43.299Z,39.78
2023-03-06T22:37:09.776Z,42.58
2023-03-06T22:39:36.197Z,36.85
2023-03-06T22:42:02.669Z,36.58
2023-03-06T22:44:29.101Z,35.25
2023-03-06T22:46:55.969Z,37.30
2023-03-06T22:49:22.644Z,36.45
2023-03-06T22:51:49.022Z,40.72
2023-03-06T22:54:15.516Z,42.17
2023-03-06T22:56:42.059Z,41.42
2023-03-06T22:59:08.450Z,35.67
2023-03-06T23:01:35.058Z,33.50
2023-03-06T23:04:03.543Z,36.13
2023-03-06T23:06:31.362Z,34.78
2023-03-06T23:09:07.895Z,35.70
2023-03-06T23:11:35.052Z,27.67
2023-03-06T23:14:02.016Z,29.88
2023-03-06T23:16:28.536Z,33.90
2023-03-06T23:18:54.987Z,28.75
2023-03-06T23:21:22.790Z,34.03
2023-03-06T23:23:51.698Z,33.07
2023-03-06T23:26:21.106Z,30.48
2023-03-06T23:28:47.643Z,33.20
2023-03-06T23:31:17.398Z,31.45
2023-03-06T23:33:45.040Z,34.60
2023-03-06T23:36:14.543Z,32.55
2023-03-06T23:38:46.270Z,32.33
2023-03-06T23:41:18.155Z,33.78
2023-03-06T23:43:46.174Z,34.60
2023-03-06T23:46:13.806Z,33.80
2023-03-06T23:48:41.631Z,28.35
2023-03-06T23:51:09.984Z,33.30
2023-03-06T23:53:36.430Z,29.52
2023-03-06T23:56:06.247Z,31.45
2023-03-06T23:58:33.714Z,31.65
